Report METAR

 

LIPB - Bolzano(Civ/It-A, Italy
Distance from station: NNE 37km
Dati ricevuti: 22/10/2021 22:50
DATI Obsoleti
Few Clouds
Few Clouds
 Vento da calmo
Vento: Calma
Temperatura: 12°C
P.to Rugiada: 8°C
Umidità: 77%
Barometro: 1019 hPa
Nuvole: Few Clouds
Visibility: 10 km
Cloud details: Few Clouds 3048 m
2021/10/22 20:50 LIPB 222050Z 00000KT 9999 FEW100 12/08 Q1019
LIVR - Rolle Pass, Italy
Distance from station: ENE 46km
Dati ricevuti: 22/10/2021 18:55
DATI Obsoleti
Molto nuvoloso
Molto nuvoloso
 Vento da ESE
Vento: ESE 15 km/h
Temperatura: 4°C
Temperatura Vento: 1°C
P.to Rugiada: 3°C
Umidità: 93%
Barometro: 1018 hPa
Nuvole: Molto nuvoloso
Visibility: 10 km
Cloud details: Molto nuvoloso 762 m
2021/10/22 16:55 LIVR 221655Z 12008KT 9999 BKN025 04/03 Q1018 RMK BKN MON CIME INC VIS MIN 9999
 
LIPS - Istrana (it-Afb), Italy
Distance from station: SE 86km
Dati ricevuti: 22/10/2021 23:55
Mist, Parz. nuvoloso
Mist, Parz. nuvoloso
 Vento da NE
Vento: NE 7 km/h
Temperatura: 11°C
P.to Rugiada: 10°C
Umidità: 94%
Barometro: 1018 hPa
Summary: Mist
Nuvole: Parz. nuvoloso
Visibility: 1 km
2021/10/22 21:55 LIPS 222155Z 05004KT 1200 BR NSC 11/10 Q1018 RMK SKC VIS MIN 1200 WIND THR26 01004KT WIND THR08 05003KT BLK AMB
LIPX - Villafranca(Cv/M, Italy
Distance from station: SSO 88km
Dati ricevuti: 22/10/2021 23:50
Patches of fog, Parz. nuvoloso
Patches of fog, Parz. nuvoloso
 Vento da NNO
Vento: NNO 11 km/h
Temperatura: 11°C
P.to Rugiada: 10°C
Umidità: 94%
Barometro: 1019 hPa
Summary: Patches of Fog
Nuvole: Parz. nuvoloso
Visibility: 2 km
2021/10/22 21:50 LIPX 222150Z 33006KT 2000 BCFG NSC 11/10 Q1019
 
LIPH - Treviso(Civ/It-A, Italy
Distance from station: SE 94km
Dati ricevuti: 22/10/2021 23:50
Mist, Nuvoloso
Mist, Nuvoloso
 Vento da NNE
Vento: NNE 4 km/h
Temperatura: 12°C
P.to Rugiada: 11°C
Umidità: 94%
Barometro: 1019 hPa
Summary: Mist
Nuvole: Molto nuvoloso
Visibility: 2 km
Cloud details: Molto nuvoloso 732 m
2021/10/22 21:50 LIPH 222150Z AUTO 02002KT 2100 BR BKN024/// 12/11 Q1019
LIVE - Resia Pass, Italy
Distance from station: NO 95km
Dati ricevuti: 22/10/2021 23:55
Sereno
Sereno
 Vento da NNE
Vento: NNE 7 km/h
Temperatura: 3°C
Temperatura Vento: 1°C
P.to Rugiada: -4°C
Umidità: 60%
Barometro: 1021 hPa
Summary: Sereno
Visibility: superiore a 10 km
2021/10/22 21:55 LIVE 222155Z 02004KT CAVOK 03/M04 Q1021 RMK SKC VIS MIN 9999
 
LIPU - Padova (civ/It-A, Italy
Distance from station: SSE 98km
Dati ricevuti: 22/10/2021 13:25
DATI Obsoleti
Mist, Nubi sparse
Mist, Nubi sparse
 Vento da Variabile
Vento: Variabile 2 km/h
Temperatura: 15°C
P.to Rugiada: 15°C
Umidità: 100%
Barometro: 1016 hPa
Summary: Mist
Nuvole: Few Clouds
Visibility: 3 km
Cloud details: Few Clouds 305 m
2021/10/22 11:25 LIPU 221125Z VRB01KT 3000 BR FEW010 15/15 Q1016